Deroche, Canada
Current Conditions -  °F | °C
As of 10:00 PM on Friday 28 Nov 2014 (Local Time) from CYXX Reporting Station
Light Snow Light Snow  
Wind Chill: 18°   Ceiling: 2500
Heat Index: 27°   Visibility: 4mi
Dew Point: 23°   Wind: 8mph
Humidity: 86%   Direction: 70°ENE
Pressure: 29.51"   Gusts: 18mph
Location:  49.19°N, 122.07°W
Report Text: CYXX 290600Z 07007G16KT 4SM -SN SCT010 OVC025 M03/M05 A2951 RMK SC3SC5 SLP995
Loading
Personal Weather Stations






























Interactive Weather Map New forecast layout! Learn more

10-Day Weather Forecast

Advertisements
Track Severe Weather on mobile